Darstellungsparameter: Aktuell verwendete Einstellungen:
Skalierung der Graphiken ... ?
xyx+y,   Skalierungsfaktor:      Skalierung: Modus: x, Faktor: 1
Darstellungszeitraum ... ?
Vom - - bis: - -   Zeitraum: 10.05.2016 - 12.05.2016
Min/Max/Avg-Anzeige ... ?
Zeige MMA aktuell
Zeige MMA Monat
Zeige MMA alles
Zeige --A aktuell
Zeige --A Monat
Zeige --A alles
Keine MMA-Anzeige
MMA:
Average (ber die Originaldaten)
MMA-Basis: 10.05.2016 - 12.05.2016
Quicknavigation für Darstellung... ?
Tage:      1T, 2T, 3T, 5T -1T -2T -3T -5T +1T +2T +3T +5T
Wochen: 1W, 2W, 3W -1W -2W -3W +1W +2W +3W
Monate: 1M, 3M, 6M -1M -3M -6M +1M +3M +6M
Jahre:    1J, 3J, 5J, 10J -1J -3J -5J -10J +1J +3J +5J +10J
Nutze für die Darstellung ... ?
Originaldaten oder Mittelwerte auf ...
Stundenbasis Tagesbasis Wochenbasis
Monatsbasis Jahresbasis      Datenbasis: Original-Daten
Darstellen als:
Statistik (Auto) Statistik J:M      Darstellung:
Zur Graphik,    zurück zur Übersicht aller Sensoren.
 
Tabellarische Datenbersicht: ?
 
Sensor: Nr:Datum:Temp:Abs-Feuchte:Windchill:Wind:
Aussen-T/F 1 10-05-2016 00:00:00 16.8 C 9.72 g/m*3 16.8 C 1.6 km/h
2 10-05-2016 00:05:00 16.7 C 9.52 g/m*3 16.7 C 0 km/h
3 10-05-2016 00:10:00 16.7 C 9.52 g/m*3 16.7 C 1.6 km/h
4 10-05-2016 00:15:00 16.7 C 9.52 g/m*3 16.7 C 1.6 km/h
5 10-05-2016 00:20:00 16.7 C 9.66 g/m*3 16.7 C 0 km/h
6 10-05-2016 00:25:00 16.6 C 9.61 g/m*3 16.6 C 1.6 km/h
7 10-05-2016 00:30:00 16.6 C 9.61 g/m*3 16.6 C 0 km/h
8 10-05-2016 00:35:00 16.5 C 9.55 g/m*3 16.5 C 1.6 km/h
9 10-05-2016 00:40:00 16.4 C 9.49 g/m*3 16.4 C 0 km/h
10 10-05-2016 00:45:00 16.4 C 9.77 g/m*3 16.4 C 0 km/h
11 10-05-2016 00:50:00 16.4 C 9.63 g/m*3 16.4 C 0 km/h
12 10-05-2016 00:55:00 16.3 C 9.57 g/m*3 16.3 C 0 km/h
13 10-05-2016 01:00:00 16.3 C 9.71 g/m*3 16.3 C 0 km/h
14 10-05-2016 01:05:00 16.3 C 9.57 g/m*3 16.3 C 0 km/h
15 10-05-2016 01:10:00 16.3 C 9.57 g/m*3 16.3 C 0 km/h
16 10-05-2016 01:15:00 16.3 C 9.71 g/m*3 16.3 C 0 km/h
17 10-05-2016 01:20:00 16.3 C 9.71 g/m*3 16.3 C 0 km/h
18 10-05-2016 01:25:00 16.3 C 9.71 g/m*3 16.3 C 0 km/h
19 10-05-2016 01:30:00 16.3 C 9.57 g/m*3 16.3 C 0 km/h
20 10-05-2016 01:35:00 16.3 C 9.85 g/m*3 16.3 C 1.6 km/h
21 10-05-2016 01:40:00 16.3 C 9.71 g/m*3 16.3 C 0 km/h
22 10-05-2016 01:45:00 16.3 C 9.71 g/m*3 16.3 C 0 km/h
23 10-05-2016 01:50:00 16.3 C 9.57 g/m*3 16.3 C 0 km/h
24 10-05-2016 01:55:00 16.4 C 9.77 g/m*3 16.4 C 0 km/h
25 10-05-2016 02:00:00 16.4 C 9.63 g/m*3 16.4 C 0 km/h
Sensor: Nr:Datum:Temp:Abs-Feuchte:Windchill:Wind:
Aussen-T/F 26 10-05-2016 02:05:00 16.4 C 9.77 g/m*3 16.4 C 0 km/h
27 10-05-2016 02:10:00 16.4 C 9.49 g/m*3 16.4 C 3.2 km/h
28 10-05-2016 02:15:00 16.6 C 9.61 g/m*3 16.6 C 6.4 km/h
29 10-05-2016 02:20:00 16.7 C 9.66 g/m*3 16.7 C 1.6 km/h
30 10-05-2016 02:25:00 16.8 C 9.58 g/m*3 16.8 C 0 km/h
31 10-05-2016 02:30:00 16.7 C 9.66 g/m*3 16.7 C 1.6 km/h
32 10-05-2016 02:35:00 16.7 C 9.52 g/m*3 16.7 C 3.2 km/h
33 10-05-2016 02:40:00 16.7 C 9.52 g/m*3 16.7 C 1.6 km/h
34 10-05-2016 02:45:00 16.7 C 9.66 g/m*3 16.7 C 0 km/h
35 10-05-2016 02:50:00 16.6 C 9.75 g/m*3 16.6 C 0 km/h
36 10-05-2016 02:55:00 16.4 C 9.63 g/m*3 16.4 C 0 km/h
37 10-05-2016 03:00:00 16.3 C 9.43 g/m*3 16.3 C 1.6 km/h
38 10-05-2016 03:05:00 16.3 C 9.71 g/m*3 16.3 C 0 km/h
39 10-05-2016 03:10:00 16.3 C 9.43 g/m*3 16.3 C 0 km/h
40 10-05-2016 03:15:00 16.3 C 9.57 g/m*3 16.3 C 0 km/h
41 10-05-2016 03:20:00 16.2 C 9.79 g/m*3 16.2 C 0 km/h
42 10-05-2016 03:25:00 16.1 C 9.73 g/m*3 16.1 C 0 km/h
43 10-05-2016 03:30:00 16 C 9.67 g/m*3 16 C 0 km/h
44 10-05-2016 03:35:00 15.9 C 9.62 g/m*3 15.9 C 0 km/h
45 10-05-2016 03:40:00 15.8 C 9.83 g/m*3 15.8 C 0 km/h
46 10-05-2016 03:45:00 15.7 C 9.77 g/m*3 15.7 C 0 km/h
47 10-05-2016 03:50:00 15.7 C 9.77 g/m*3 15.7 C 0 km/h
48 10-05-2016 03:55:00 15.6 C 9.84 g/m*3 15.6 C 0 km/h
49 10-05-2016 04:00:00 15.5 C 9.52 g/m*3 15.5 C 0 km/h
50 10-05-2016 04:05:00 15.4 C 9.59 g/m*3 15.4 C 0 km/h
Sensor: Nr:Datum:Temp:Abs-Feuchte:Windchill:Wind:
Aussen-T/F 51 10-05-2016 04:10:00 15.4 C 9.72 g/m*3 15.4 C 0 km/h
52 10-05-2016 04:15:00 15.3 C 9.53 g/m*3 15.3 C 0 km/h
53 10-05-2016 04:20:00 15.3 C 9.66 g/m*3 15.3 C 0 km/h
54 10-05-2016 04:25:00 15.3 C 9.66 g/m*3 15.3 C 0 km/h
55 10-05-2016 04:30:00 15.2 C 9.61 g/m*3 15.2 C 0 km/h
56 10-05-2016 04:35:00 15.2 C 9.61 g/m*3 15.2 C 0 km/h
57 10-05-2016 04:40:00 15.1 C 9.68 g/m*3 15.1 C 0 km/h
58 10-05-2016 04:45:00 15.1 C 9.68 g/m*3 15.1 C 0 km/h
59 10-05-2016 04:50:00 15.1 C 9.68 g/m*3 15.1 C 0 km/h
60 10-05-2016 04:55:00 15.1 C 9.8 g/m*3 15.1 C 0 km/h
61 10-05-2016 05:00:00 15.1 C 9.68 g/m*3 15.1 C 0 km/h
62 10-05-2016 05:05:00 15.1 C 9.68 g/m*3 15.1 C 0 km/h
63 10-05-2016 05:10:00 15.1 C 9.68 g/m*3 15.1 C 0 km/h
64 10-05-2016 05:15:00 15.1 C 9.55 g/m*3 15.1 C 0 km/h
65 10-05-2016 05:20:00 15.1 C 9.68 g/m*3 15.1 C 0 km/h
66 10-05-2016 05:25:00 15.1 C 9.68 g/m*3 15.1 C 0 km/h
67 10-05-2016 05:30:00 15.1 C 9.55 g/m*3 15.1 C 0 km/h
68 10-05-2016 05:35:00 15.1 C 9.68 g/m*3 15.1 C 0 km/h
69 10-05-2016 05:40:00 15.1 C 9.68 g/m*3 15.1 C 0 km/h
70 10-05-2016 05:45:00 15 C 9.62 g/m*3 15 C 0 km/h
71 10-05-2016 05:50:00 15 C 9.49 g/m*3 15 C 0 km/h
72 10-05-2016 05:55:00 15 C 9.62 g/m*3 15 C 0 km/h
73 10-05-2016 06:00:00 15 C 9.62 g/m*3 15 C 0 km/h
74 10-05-2016 06:05:00 15 C 9.49 g/m*3 15 C 0 km/h
75 10-05-2016 06:10:00 15 C 9.62 g/m*3 15 C 0 km/h
Sensor: Nr:Datum:Temp:Abs-Feuchte:Windchill:Wind:
Aussen-T/F 76 10-05-2016 06:15:00 14.9 C 9.69 g/m*3 14.9 C 0 km/h
77 10-05-2016 06:20:00 14.9 C 9.69 g/m*3 14.9 C 0 km/h
78 10-05-2016 06:25:00 14.9 C 9.69 g/m*3 14.9 C 0 km/h
79 10-05-2016 06:30:00 14.8 C 9.63 g/m*3 14.8 C 0 km/h
80 10-05-2016 06:35:00 14.8 C 9.75 g/m*3 14.8 C 0 km/h
81 10-05-2016 06:40:00 14.8 C 9.75 g/m*3 14.8 C 0 km/h
82 10-05-2016 06:45:00 14.8 C 9.75 g/m*3 14.8 C 0 km/h
83 10-05-2016 06:50:00 14.8 C 9.75 g/m*3 14.8 C 0 km/h
84 10-05-2016 06:55:00 14.8 C 9.63 g/m*3 14.8 C 0 km/h
85 10-05-2016 07:00:00 14.9 C 9.69 g/m*3 14.9 C 0 km/h
86 10-05-2016 07:05:00 14.9 C 9.81 g/m*3 14.9 C 0 km/h
87 10-05-2016 07:10:00 14.9 C 9.81 g/m*3 14.9 C 0 km/h
88 10-05-2016 07:15:00 14.9 C 9.81 g/m*3 14.9 C 0 km/h
89 10-05-2016 07:20:00 15 C 10 g/m*3 15 C 0 km/h
90 10-05-2016 07:25:00 15 C 10 g/m*3 15 C 0 km/h
91 10-05-2016 07:30:00 15.1 C 10.06 g/m*3 15.1 C 0 km/h
92 10-05-2016 07:35:00 15.2 C 10.25 g/m*3 15.2 C 0 km/h
93 10-05-2016 07:40:00 15.2 C 10.12 g/m*3 15.2 C 0 km/h
94 10-05-2016 07:45:00 15.3 C 10.32 g/m*3 15.3 C 0 km/h
95 10-05-2016 07:50:00 15.4 C 10.51 g/m*3 15.4 C 0 km/h
96 10-05-2016 07:55:00 15.6 C 10.64 g/m*3 15.6 C 0 km/h
97 10-05-2016 08:00:00 15.7 C 10.84 g/m*3 15.7 C 0 km/h
98 10-05-2016 08:05:00 15.8 C 10.9 g/m*3 15.8 C 0 km/h
99 10-05-2016 08:10:00 15.9 C 10.83 g/m*3 15.9 C 0 km/h
100 10-05-2016 08:15:00 16.1 C 10.97 g/m*3 16.1 C 0 km/h
Sensor: Nr:Datum:Temp:Abs-Feuchte:Windchill:Wind:
Aussen-T/F 101 10-05-2016 08:20:00 16.2 C 11.03 g/m*3 16.2 C 0 km/h
102 10-05-2016 08:25:00 16.3 C 10.54 g/m*3 16.3 C 0 km/h
103 10-05-2016 08:30:00 16.4 C 10.19 g/m*3 16.4 C 0 km/h
104 10-05-2016 08:35:00 16.6 C 9.89 g/m*3 16.6 C 0 km/h
105 10-05-2016 08:40:00 16.8 C 10.29 g/m*3 16.8 C 0 km/h
106 10-05-2016 08:45:00 17.1 C 10.77 g/m*3 17.1 C 0 km/h
107 10-05-2016 08:50:00 17.2 C 10.54 g/m*3 17.2 C 0 km/h
108 10-05-2016 08:55:00 17.3 C 10.31 g/m*3 17.3 C 1.6 km/h
109 10-05-2016 09:00:00 17.4 C 9.93 g/m*3 17.4 C 1.6 km/h
110 10-05-2016 09:05:00 17.4 C 10.23 g/m*3 17.4 C 1.6 km/h
111 10-05-2016 09:10:00 17.6 C 10.2 g/m*3 17.6 C 4.8 km/h
112 10-05-2016 09:15:00 17.7 C 9.96 g/m*3 17.7 C 3.2 km/h
113 10-05-2016 09:20:00 17.8 C 10.02 g/m*3 17.8 C 4.8 km/h
114 10-05-2016 09:25:00 17.9 C 10.08 g/m*3 17.9 C 6.4 km/h
115 10-05-2016 09:30:00 18 C 9.98 g/m*3 18 C 6.4 km/h
116 10-05-2016 09:35:00 18.1 C 9.89 g/m*3 18.1 C 6.4 km/h
117 10-05-2016 09:40:00 18.1 C 9.89 g/m*3 18.1 C 4.8 km/h
118 10-05-2016 09:45:00 18.2 C 9.95 g/m*3 18.2 C 4.8 km/h
119 10-05-2016 09:50:00 18.3 C 10.01 g/m*3 18.3 C 3.2 km/h
120 10-05-2016 09:55:00 18.4 C 10.07 g/m*3 18.4 C 3.2 km/h
121 10-05-2016 10:00:00 18.6 C 10.35 g/m*3 18.6 C 1.6 km/h
122 10-05-2016 10:05:00 18.8 C 10.15 g/m*3 18.8 C 4.8 km/h
123 10-05-2016 10:10:00 18.8 C 10.15 g/m*3 18.8 C 4.8 km/h
124 10-05-2016 10:15:00 18.9 C 10.04 g/m*3 18.9 C 4.8 km/h
125 10-05-2016 10:20:00 19 C 10.1 g/m*3 19 C 6.4 km/h
Sensor: Nr:Datum:Temp:Abs-Feuchte:Windchill:Wind:
Aussen-T/F 126 10-05-2016 10:25:00 19.1 C 10 g/m*3 19.1 C 8.1 km/h
127 10-05-2016 10:30:00 19.1 C 10.16 g/m*3 19.1 C 6.4 km/h
128 10-05-2016 10:35:00 19.2 C 10.22 g/m*3 19.2 C 6.4 km/h
129 10-05-2016 10:40:00 19.4 C 10.34 g/m*3 19.4 C 4.8 km/h
130 10-05-2016 10:45:00 19.6 C 10.13 g/m*3 19.6 C 8.1 km/h
131 10-05-2016 10:50:00 19.7 C 10.36 g/m*3 19.7 C 3.2 km/h
132 10-05-2016 10:55:00 19.8 C 10.25 g/m*3 19.8 C 3.2 km/h
133 10-05-2016 11:00:00 19.8 C 10.25 g/m*3 19.8 C 4.8 km/h
134 10-05-2016 11:05:00 19.9 C 10.31 g/m*3 19.9 C 4.8 km/h
135 10-05-2016 11:10:00 19.9 C 10.14 g/m*3 19.9 C 8.1 km/h
136 10-05-2016 11:15:00 20 C 10.2 g/m*3 20 C 1.6 km/h
137 10-05-2016 11:20:00 20.1 C 10.26 g/m*3 20.1 C 3.2 km/h
138 10-05-2016 11:25:00 20.2 C 11.02 g/m*3 20.2 C 6.4 km/h
139 10-05-2016 11:30:00 20.3 C 11.08 g/m*3 20.3 C 6.4 km/h
140 10-05-2016 11:35:00 20.3 C 10.73 g/m*3 20.3 C 4.8 km/h
141 10-05-2016 11:40:00 20.4 C 11.14 g/m*3 20.4 C 6.4 km/h
142 10-05-2016 11:45:00 20.5 C 10.85 g/m*3 20.5 C 6.4 km/h
143 10-05-2016 11:50:00 20.5 C 11.03 g/m*3 20.5 C 8.1 km/h
144 10-05-2016 11:55:00 20.5 C 11.03 g/m*3 20.5 C 9.7 km/h
145 10-05-2016 12:00:00 20.5 C 11.21 g/m*3 20.5 C 8.1 km/h
146 10-05-2016 12:05:00 20.6 C 11.63 g/m*3 20.6 C 4.8 km/h
147 10-05-2016 12:10:00 20.6 C 11.81 g/m*3 20.6 C 4.8 km/h
148 10-05-2016 12:15:00 20.4 C 12.03 g/m*3 20.4 C 3.2 km/h
149 10-05-2016 12:20:00 20.3 C 11.96 g/m*3 20.3 C 4.8 km/h
150 10-05-2016 12:25:00 20.1 C 12.17 g/m*3 20.1 C 0 km/h
Sensor: Nr:Datum:Temp:Abs-Feuchte:Windchill:Wind:
Aussen-T/F 151 10-05-2016 12:30:00 19.9 C 12.54 g/m*3 19.9 C 0 km/h
152 10-05-2016 12:35:00 19.8 C 12.64 g/m*3 19.8 C 0 km/h
153 10-05-2016 12:40:00 19.5 C 12.59 g/m*3 19.5 C 6.4 km/h
154 10-05-2016 12:45:00 19.2 C 12.7 g/m*3 19.2 C 4.8 km/h
155 10-05-2016 12:50:00 19.1 C 13.11 g/m*3 19.1 C 4.8 km/h
156 10-05-2016 12:55:00 18.9 C 13.12 g/m*3 18.9 C 3.2 km/h
157 10-05-2016 13:00:00 18.8 C 13.37 g/m*3 18.8 C 1.6 km/h
158 10-05-2016 13:05:00 18.8 C 13.21 g/m*3 18.8 C 8.1 km/h
159 10-05-2016 13:10:00 18.7 C 13.13 g/m*3 18.7 C 6.4 km/h
160 10-05-2016 13:15:00 18.8 C 13.21 g/m*3 18.8 C 3.2 km/h
161 10-05-2016 13:20:00 18.8 C 13.05 g/m*3 18.8 C 8.1 km/h
162 10-05-2016 13:25:00 18.9 C 13.28 g/m*3 18.9 C 6.4 km/h
163 10-05-2016 13:30:00 19.1 C 13.28 g/m*3 19.1 C 8.1 km/h
164 10-05-2016 13:35:00 19.1 C 12.95 g/m*3 19.1 C 8.1 km/h
165 10-05-2016 13:40:00 19.1 C 12.62 g/m*3 19.1 C 12.9 km/h
166 10-05-2016 13:45:00 19 C 12.71 g/m*3 19 C 11.3 km/h
167 10-05-2016 13:50:00 19 C 12.87 g/m*3 19 C 8.1 km/h
168 10-05-2016 13:55:00 18.9 C 12.64 g/m*3 18.9 C 8.1 km/h
169 10-05-2016 14:00:00 18.9 C 12.96 g/m*3 18.9 C 3.2 km/h
170 10-05-2016 14:05:00 18.8 C 12.88 g/m*3 18.8 C 4.8 km/h
171 10-05-2016 14:10:00 18.8 C 12.88 g/m*3 18.8 C 9.7 km/h
172 10-05-2016 14:15:00 18.8 C 12.88 g/m*3 18.8 C 8.1 km/h
173 10-05-2016 14:20:00 18.9 C 12.96 g/m*3 18.9 C 9.7 km/h
174 10-05-2016 14:25:00 18.9 C 13.12 g/m*3 18.9 C 9.7 km/h
175 10-05-2016 14:30:00 18.9 C 13.28 g/m*3 18.9 C 8.1 km/h
Sensor: Nr:Datum:Temp:Abs-Feuchte:Windchill:Wind:
Aussen-T/F 176 10-05-2016 14:35:00 18.9 C 13.28 g/m*3 18.9 C 8.1 km/h
177 10-05-2016 14:40:00 18.9 C 13.12 g/m*3 18.9 C 3.2 km/h
178 10-05-2016 14:45:00 19 C 13.36 g/m*3 19 C 0 km/h
179 10-05-2016 14:50:00 19.1 C 13.61 g/m*3 19.1 C 6.4 km/h
180 10-05-2016 14:55:00 18.9 C 13.28 g/m*3 18.9 C 4.8 km/h
181 10-05-2016 15:00:00 18.8 C 13.21 g/m*3 18.8 C 6.4 km/h
182 10-05-2016 15:05:00 18.8 C 13.37 g/m*3 18.8 C 3.2 km/h
183 10-05-2016 15:10:00 18.7 C 13.29 g/m*3 18.7 C 1.6 km/h
184 10-05-2016 15:15:00 18.6 C 13.21 g/m*3 18.6 C 3.2 km/h
185 10-05-2016 15:20:00 18.6 C 13.37 g/m*3 18.6 C 4.8 km/h
186 10-05-2016 15:25:00 18.6 C 13.37 g/m*3 18.6 C 4.8 km/h
187 10-05-2016 15:30:00 18.7 C 13.61 g/m*3 18.7 C 3.2 km/h
188 10-05-2016 15:35:00 18.7 C 13.45 g/m*3 18.7 C 6.4 km/h
189 10-05-2016 15:40:00 18.7 C 13.61 g/m*3 18.7 C 3.2 km/h
190 10-05-2016 15:45:00 18.7 C 13.61 g/m*3 18.7 C 6.4 km/h
191 10-05-2016 15:50:00 18.7 C 13.45 g/m*3 18.7 C 6.4 km/h
192 10-05-2016 15:55:00 18.7 C 13.61 g/m*3 18.7 C 6.4 km/h
193 10-05-2016 16:00:00 18.7 C 13.61 g/m*3 18.7 C 4.8 km/h
194 10-05-2016 16:05:00 18.7 C 13.61 g/m*3 18.7 C 6.4 km/h
195 10-05-2016 16:10:00 18.7 C 13.45 g/m*3 18.7 C 4.8 km/h
196 10-05-2016 16:15:00 18.8 C 13.53 g/m*3 18.8 C 4.8 km/h
197 10-05-2016 16:20:00 18.7 C 13.29 g/m*3 18.7 C 4.8 km/h
198 10-05-2016 16:25:00 18.8 C 13.53 g/m*3 18.8 C 1.6 km/h
199 10-05-2016 16:30:00 18.8 C 13.37 g/m*3 18.8 C 3.2 km/h
200 10-05-2016 16:35:00 18.9 C 13.45 g/m*3 18.9 C 1.6 km/h
Sensor: Nr:Datum:Temp:Abs-Feuchte:Windchill:Wind:
Aussen-T/F 201 10-05-2016 16:40:00 19.1 C 13.44 g/m*3 19.1 C 3.2 km/h
202 10-05-2016 16:45:00 19.2 C 13.36 g/m*3 19.2 C 4.8 km/h
203 10-05-2016 16:50:00 19.3 C 13.27 g/m*3 19.3 C 3.2 km/h
204 10-05-2016 16:55:00 19.3 C 13.1 g/m*3 19.3 C 4.8 km/h
205 10-05-2016 17:00:00 19.2 C 13.03 g/m*3 19.2 C 0 km/h
206 10-05-2016 17:05:00 19.2 C 13.03 g/m*3 19.2 C 0 km/h
207 10-05-2016 17:10:00 19.1 C 12.95 g/m*3 19.1 C 3.2 km/h
208 10-05-2016 17:15:00 19.1 C 12.95 g/m*3 19.1 C 4.8 km/h
209 10-05-2016 17:20:00 18.9 C 12.96 g/m*3 18.9 C 3.2 km/h
210 10-05-2016 17:25:00 18.9 C 13.45 g/m*3 18.9 C 1.6 km/h
211 10-05-2016 17:30:00 18.8 C 13.37 g/m*3 18.8 C 1.6 km/h
212 10-05-2016 17:35:00 18.7 C 13.13 g/m*3 18.7 C 1.6 km/h
213 10-05-2016 17:40:00 18.7 C 13.77 g/m*3 18.7 C 3.2 km/h
214 10-05-2016 17:45:00 18.7 C 13.77 g/m*3 18.7 C 0 km/h
215 10-05-2016 17:50:00 18.6 C 13.85 g/m*3 18.6 C 0 km/h
216 10-05-2016 17:55:00 18.4 C 13.68 g/m*3 18.4 C 0 km/h
217 10-05-2016 18:00:00 18.3 C 13.6 g/m*3 18.3 C 0 km/h
218 10-05-2016 18:05:00 18.1 C 13.6 g/m*3 18.1 C 0 km/h
219 10-05-2016 18:10:00 17.9 C 13.44 g/m*3 17.9 C 0 km/h
220 10-05-2016 18:15:00 17.8 C 13.36 g/m*3 17.8 C 0 km/h
221 10-05-2016 18:20:00 17.8 C 13.51 g/m*3 17.8 C 0 km/h
222 10-05-2016 18:25:00 17.7 C 13.28 g/m*3 17.7 C 0 km/h
223 10-05-2016 18:30:00 17.7 C 13.28 g/m*3 17.7 C 1.6 km/h
224 10-05-2016 18:35:00 17.6 C 12.75 g/m*3 17.6 C 4.8 km/h
225 10-05-2016 18:40:00 17.6 C 12.9 g/m*3 17.6 C 3.2 km/h
Sensor: Nr:Datum:Temp:Abs-Feuchte:Windchill:Wind:
Aussen-T/F 226 10-05-2016 18:45:00 17.6 C 12.9 g/m*3 17.6 C 1.6 km/h
227 10-05-2016 18:50:00 17.8 C 12.9 g/m*3 17.8 C 3.2 km/h
228 10-05-2016 18:55:00 18 C 12.75 g/m*3 18 C 3.2 km/h
229 10-05-2016 19:00:00 18.2 C 12.75 g/m*3 18.2 C 4.8 km/h
230 10-05-2016 19:05:00 18.3 C 13.13 g/m*3 18.3 C 6.4 km/h
231 10-05-2016 19:10:00 18.3 C 12.98 g/m*3 18.3 C 4.8 km/h
232 10-05-2016 19:15:00 18.4 C 12.9 g/m*3 18.4 C 1.6 km/h
233 10-05-2016 19:20:00 18.4 C 12.9 g/m*3 18.4 C 1.6 km/h
234 10-05-2016 19:25:00 18.5 C 13.13 g/m*3 18.5 C 0 km/h
235 10-05-2016 19:30:00 18.5 C 13.13 g/m*3 18.5 C 3.2 km/h
236 10-05-2016 19:35:00 18.4 C 13.37 g/m*3 18.4 C 0 km/h
237 10-05-2016 19:40:00 18.4 C 13.53 g/m*3 18.4 C 0 km/h
238 10-05-2016 19:45:00 18.2 C 13.52 g/m*3 18.2 C 0 km/h
239 10-05-2016 19:50:00 18.1 C 13.29 g/m*3 18.1 C 0 km/h
240 10-05-2016 19:55:00 17.9 C 13.13 g/m*3 17.9 C 0 km/h
241 10-05-2016 20:00:00 17.7 C 12.98 g/m*3 17.7 C 0 km/h
242 10-05-2016 20:05:00 17.6 C 13.05 g/m*3 17.6 C 0 km/h
243 10-05-2016 20:10:00 17.3 C 12.82 g/m*3 17.3 C 0 km/h
244 10-05-2016 20:15:00 17.2 C 12.89 g/m*3 17.2 C 0 km/h
245 10-05-2016 20:20:00 17 C 12.73 g/m*3 17 C 0 km/h
246 10-05-2016 20:25:00 16.8 C 12.58 g/m*3 16.8 C 0 km/h
247 10-05-2016 20:30:00 16.7 C 12.51 g/m*3 16.7 C 0 km/h
248 10-05-2016 20:35:00 16.6 C 12.57 g/m*3 16.6 C 0 km/h
249 10-05-2016 20:40:00 16.4 C 12.42 g/m*3 16.4 C 0 km/h
250 10-05-2016 20:45:00 16.3 C 12.35 g/m*3 16.3 C 0 km/h
Sensor: Nr:Datum:Temp:Abs-Feuchte:Windchill:Wind:
Aussen-T/F 251 10-05-2016 20:50:00 16.2 C 12.41 g/m*3 16.2 C 0 km/h
252 10-05-2016 20:55:00 16 C 12.26 g/m*3 16 C 0 km/h
253 10-05-2016 21:00:00 15.9 C 12.19 g/m*3 15.9 C 0 km/h
254 10-05-2016 21:05:00 15.8 C 12.11 g/m*3 15.8 C 0 km/h
255 10-05-2016 21:10:00 15.7 C 12.04 g/m*3 15.7 C 0 km/h
256 10-05-2016 21:15:00 15.6 C 11.97 g/m*3 15.6 C 0 km/h
257 10-05-2016 21:20:00 15.5 C 12.03 g/m*3 15.5 C 0 km/h
258 10-05-2016 21:25:00 15.4 C 11.96 g/m*3 15.4 C 1.6 km/h
259 10-05-2016 21:30:00 15.3 C 11.88 g/m*3 15.3 C 0 km/h
260 10-05-2016 21:35:00 15.2 C 11.81 g/m*3 15.2 C 0 km/h
261 10-05-2016 21:40:00 15.1 C 11.74 g/m*3 15.1 C 0 km/h
262 10-05-2016 21:45:00 15 C 11.8 g/m*3 15 C 0 km/h
263 10-05-2016 21:50:00 14.9 C 11.73 g/m*3 14.9 C 0 km/h
264 10-05-2016 21:55:00 14.8 C 11.65 g/m*3 14.8 C 0 km/h
265 10-05-2016 22:00:00 14.8 C 11.65 g/m*3 14.8 C 0 km/h
266 10-05-2016 22:05:00 14.7 C 11.58 g/m*3 14.7 C 0 km/h
267 10-05-2016 22:10:00 14.6 C 11.51 g/m*3 14.6 C 0 km/h
268 10-05-2016 22:15:00 14.6 C 11.51 g/m*3 14.6 C 0 km/h
269 10-05-2016 22:20:00 14.4 C 11.37 g/m*3 14.4 C 1.6 km/h
270 10-05-2016 22:25:00 14.3 C 11.3 g/m*3 14.3 C 0 km/h
271 10-05-2016 22:30:00 14.2 C 11.23 g/m*3 14.2 C 0 km/h
272 10-05-2016 22:35:00 14.1 C 11.17 g/m*3 14.1 C 0 km/h
273 10-05-2016 22:40:00 14.1 C 11.29 g/m*3 14.1 C 0 km/h
274 10-05-2016 22:45:00 14.1 C 11.29 g/m*3 14.1 C 0 km/h
275 10-05-2016 22:50:00 14 C 11.22 g/m*3 14 C 0 km/h
Sensor: Nr:Datum:Temp:Abs-Feuchte:Windchill:Wind:
Aussen-T/F 276 10-05-2016 22:55:00 13.9 C 11.15 g/m*3 13.9 C 0 km/h
277 10-05-2016 23:00:00 13.9 C 11.15 g/m*3 13.9 C 0 km/h
278 10-05-2016 23:05:00 13.8 C 11.08 g/m*3 13.8 C 0 km/h
279 10-05-2016 23:10:00 13.8 C 11.2 g/m*3 13.8 C 0 km/h
280 10-05-2016 23:15:00 13.8 C 11.2 g/m*3 13.8 C 0 km/h
281 10-05-2016 23:20:00 13.8 C 11.2 g/m*3 13.8 C 0 km/h
282 10-05-2016 23:25:00 13.8 C 11.2 g/m*3 13.8 C 0 km/h
283 10-05-2016 23:30:00 13.8 C 11.2 g/m*3 13.8 C 0 km/h
284 10-05-2016 23:35:00 13.7 C 11.13 g/m*3 13.7 C 0 km/h
285 10-05-2016 23:40:00 13.7 C 11.13 g/m*3 13.7 C 0 km/h
286 10-05-2016 23:45:00 13.6 C 11.06 g/m*3 13.6 C 0 km/h
287 10-05-2016 23:50:00 13.6 C 11.06 g/m*3 13.6 C 0 km/h
288 10-05-2016 23:55:00 13.7 C 11.13 g/m*3 13.7 C 0 km/h
289 11-05-2016 00:00:00 13.7 C 11.13 g/m*3 13.7 C 0 km/h
290 11-05-2016 00:05:00 13.6 C 11.06 g/m*3 13.6 C 0 km/h
291 11-05-2016 00:10:00 13.6 C 11.06 g/m*3 13.6 C 0 km/h
292 11-05-2016 00:15:00 13.5 C 10.99 g/m*3 13.5 C 0 km/h
293 11-05-2016 00:20:00 13.4 C 10.93 g/m*3 13.4 C 0 km/h
294 11-05-2016 00:25:00 13.4 C 10.93 g/m*3 13.4 C 0 km/h
295 11-05-2016 00:30:00 13.4 C 10.93 g/m*3 13.4 C 0 km/h
296 11-05-2016 00:35:00 13.4 C 10.93 g/m*3 13.4 C 0 km/h
297 11-05-2016 00:40:00 13.3 C 10.86 g/m*3 13.3 C 0 km/h
298 11-05-2016 00:45:00 13.2 C 10.79 g/m*3 13.2 C 0 km/h
299 11-05-2016 00:50:00 13.2 C 10.91 g/m*3 13.2 C 0 km/h
300 11-05-2016 00:55:00 13.2 C 10.91 g/m*3 13.2 C 0 km/h
Sensor: Nr:Datum:Temp:Abs-Feuchte:Windchill:Wind:
Aussen-T/F 301 11-05-2016 01:00:00 13.2 C 10.91 g/m*3 13.2 C 0 km/h
302 11-05-2016 01:05:00 13.2 C 10.91 g/m*3 13.2 C 0 km/h
303 11-05-2016 01:10:00 13.2 C 10.91 g/m*3 13.2 C 0 km/h
304 11-05-2016 01:15:00 13.1 C 10.73 g/m*3 13.1 C 0 km/h
305 11-05-2016 01:20:00 12.9 C 10.71 g/m*3 12.9 C 0 km/h
306 11-05-2016 01:25:00 12.9 C 10.71 g/m*3 12.9 C 0 km/h
307 11-05-2016 01:30:00 12.8 C 10.64 g/m*3 12.8 C 0 km/h
308 11-05-2016 01:35:00 12.7 C 10.58 g/m*3 12.7 C 0 km/h
309 11-05-2016 01:40:00 12.7 C 10.46 g/m*3 12.7 C 0 km/h
310 11-05-2016 01:45:00 12.6 C 10.51 g/m*3 12.6 C 0 km/h
311 11-05-2016 01:50:00 12.5 C 10.44 g/m*3 12.5 C 0 km/h
312 11-05-2016 01:55:00 12.4 C 10.38 g/m*3 12.4 C 0 km/h
313 11-05-2016 02:00:00 12.3 C 10.32 g/m*3 12.3 C 0 km/h
314 11-05-2016 02:05:00 12.3 C 10.32 g/m*3 12.3 C 0 km/h
315 11-05-2016 02:10:00 12.3 C 10.32 g/m*3 12.3 C 0 km/h
316 11-05-2016 02:15:00 12.3 C 10.32 g/m*3 12.3 C 0 km/h
317 11-05-2016 02:20:00 12.2 C 10.25 g/m*3 12.2 C 0 km/h
318 11-05-2016 02:25:00 12.2 C 10.25 g/m*3 12.2 C 0 km/h
319 11-05-2016 02:30:00 12.3 C 10.42 g/m*3 12.3 C 0 km/h
320 11-05-2016 02:35:00 12.4 C 10.38 g/m*3 12.4 C 0 km/h
321 11-05-2016 02:40:00 12.3 C 10.32 g/m*3 12.3 C 0 km/h
322 11-05-2016 02:45:00 12.2 C 10.25 g/m*3 12.2 C 0 km/h
323 11-05-2016 02:50:00 12.1 C 10.19 g/m*3 12.1 C 0 km/h
324 11-05-2016 02:55:00 12 C 10.12 g/m*3 12 C 0 km/h
325 11-05-2016 03:00:00 12 C 10.12 g/m*3 12 C 0 km/h
Sensor: Nr:Datum:Temp:Abs-Feuchte:Windchill:Wind:
Aussen-T/F 326 11-05-2016 03:05:00 11.9 C 10.06 g/m*3 11.9 C 0 km/h
327 11-05-2016 03:10:00 11.7 C 9.94 g/m*3 11.7 C 0 km/h
328 11-05-2016 03:15:00 11.6 C 9.87 g/m*3 11.6 C 0 km/h
329 11-05-2016 03:20:00 11.6 C 9.87 g/m*3 11.6 C 0 km/h
330 11-05-2016 03:25:00 11.5 C 9.81 g/m*3 11.5 C 0 km/h
331 11-05-2016 03:30:00 11.4 C 9.75 g/m*3 11.4 C 0 km/h
332 11-05-2016 03:35:00 11.5 C 9.92 g/m*3 11.5 C 0 km/h
333 11-05-2016 03:40:00 11.5 C 9.92 g/m*3 11.5 C 0 km/h
334 11-05-2016 03:45:00 11.5 C 9.92 g/m*3 11.5 C 0 km/h
335 11-05-2016 03:50:00 11.5 C 9.92 g/m*3 11.5 C 0 km/h
336 11-05-2016 03:55:00 11.5 C 9.92 g/m*3 11.5 C 0 km/h
337 11-05-2016 04:00:00 11.6 C 9.98 g/m*3 11.6 C 0 km/h
338 11-05-2016 04:05:00 11.7 C 10.04 g/m*3 11.7 C 0 km/h
339 11-05-2016 04:10:00 11.8 C 10.1 g/m*3 11.8 C 0 km/h
340 11-05-2016 04:15:00 11.8 C 10.1 g/m*3 11.8 C 0 km/h
341 11-05-2016 04:20:00 11.8 C 10.1 g/m*3 11.8 C 0 km/h
342 11-05-2016 04:25:00 11.8 C 10.1 g/m*3 11.8 C 0 km/h
343 11-05-2016 04:30:00 11.9 C 10.17 g/m*3 11.9 C 0 km/h
344 11-05-2016 04:35:00 11.8 C 10.1 g/m*3 11.8 C 0 km/h
345 11-05-2016 04:40:00 11.8 C 10.1 g/m*3 11.8 C 0 km/h
346 11-05-2016 04:45:00 11.6 C 9.98 g/m*3 11.6 C 0 km/h
347 11-05-2016 04:50:00 11.4 C 9.75 g/m*3 11.4 C 0 km/h
348 11-05-2016 04:55:00 11.4 C 9.85 g/m*3 11.4 C 0 km/h
349 11-05-2016 05:00:00 11.3 C 9.79 g/m*3 11.3 C 0 km/h
350 11-05-2016 05:05:00 11.3 C 9.79 g/m*3 11.3 C 0 km/h
Sensor: Nr:Datum:Temp:Abs-Feuchte:Windchill:Wind:
Aussen-T/F 351 11-05-2016 05:10:00 11.3 C 9.79 g/m*3 11.3 C 0 km/h
352 11-05-2016 05:15:00 11.3 C 9.79 g/m*3 11.3 C 0 km/h
353 11-05-2016 05:20:00 11.3 C 9.79 g/m*3 11.3 C 0 km/h
354 11-05-2016 05:25:00 11.3 C 9.79 g/m*3 11.3 C 0 km/h
355 11-05-2016 05:30:00 11.2 C 9.73 g/m*3 11.2 C 0 km/h
356 11-05-2016 05:35:00 11.1 C 9.67 g/m*3 11.1 C 0 km/h
357 11-05-2016 05:40:00 11.1 C 9.67 g/m*3 11.1 C 0 km/h
358 11-05-2016 05:45:00 11.1 C 9.67 g/m*3 11.1 C 3.2 km/h
359 11-05-2016 05:50:00 11.1 C 9.67 g/m*3 11.1 C 0 km/h
360 11-05-2016 05:55:00 11.2 C 9.73 g/m*3 11.2 C 0 km/h
361 11-05-2016 06:00:00 11.3 C 9.79 g/m*3 11.3 C 0 km/h
362 11-05-2016 06:05:00 11.3 C 9.89 g/m*3 11.3 C 0 km/h
363 11-05-2016 06:10:00 11.4 C 9.96 g/m*3 11.4 C 0 km/h
364 11-05-2016 06:15:00 11.4 C 9.96 g/m*3 11.4 C 0 km/h
365 11-05-2016 06:20:00 11.4 C 9.96 g/m*3 11.4 C 0 km/h
366 11-05-2016 06:25:00 11.5 C 10.02 g/m*3 11.5 C 0 km/h
367 11-05-2016 06:30:00 11.6 C 9.98 g/m*3 11.6 C 0 km/h
368 11-05-2016 06:35:00 11.6 C 9.98 g/m*3 11.6 C 0 km/h
369 11-05-2016 06:40:00 11.7 C 10.15 g/m*3 11.7 C 0 km/h
370 11-05-2016 06:45:00 11.7 C 10.15 g/m*3 11.7 C 0 km/h
371 11-05-2016 06:50:00 11.7 C 10.15 g/m*3 11.7 C 0 km/h
372 11-05-2016 06:55:00 11.8 C 10.21 g/m*3 11.8 C 0 km/h
373 11-05-2016 07:00:00 11.8 C 10.21 g/m*3 11.8 C 0 km/h
374 11-05-2016 07:05:00 11.9 C 10.27 g/m*3 11.9 C 0 km/h
375 11-05-2016 07:10:00 11.9 C 10.27 g/m*3 11.9 C 0 km/h
Sensor: Nr:Datum:Temp:Abs-Feuchte:Windchill:Wind:
Aussen-T/F 376 11-05-2016 07:15:00 12.1 C 10.4 g/m*3 12.1 C 0 km/h
377 11-05-2016 07:20:00 12.1 C 10.4 g/m*3 12.1 C 0 km/h
378 11-05-2016 07:25:00 12.2 C 10.47 g/m*3 12.2 C 0 km/h
379 11-05-2016 07:30:00 12.2 C 10.47 g/m*3 12.2 C 0 km/h
380 11-05-2016 07:35:00 12.3 C 10.53 g/m*3 12.3 C 0 km/h
381 11-05-2016 07:40:00 12.4 C 10.6 g/m*3 12.4 C 0 km/h
382 11-05-2016 07:45:00 12.5 C 10.66 g/m*3 12.5 C 0 km/h
383 11-05-2016 07:50:00 12.5 C 10.66 g/m*3 12.5 C 3.2 km/h
384 11-05-2016 07:55:00 12.5 C 10.66 g/m*3 12.5 C 1.6 km/h
385 11-05-2016 08:00:00 12.5 C 10.66 g/m*3 12.5 C 1.6 km/h
386 11-05-2016 08:05:00 12.5 C 10.66 g/m*3 12.5 C 1.6 km/h
387 11-05-2016 08:10:00 12.6 C 10.73 g/m*3 12.6 C 1.6 km/h
388 11-05-2016 08:15:00 12.6 C 10.73 g/m*3 12.6 C 0 km/h
389 11-05-2016 08:20:00 12.7 C 10.8 g/m*3 12.7 C 1.6 km/h
390 11-05-2016 08:25:00 12.6 C 10.73 g/m*3 12.6 C 0 km/h
391 11-05-2016 08:30:00 12.6 C 10.73 g/m*3 12.6 C 3.2 km/h
392 11-05-2016 08:35:00 12.6 C 10.73 g/m*3 12.6 C 1.6 km/h
393 11-05-2016 08:40:00 12.6 C 10.73 g/m*3 12.6 C 3.2 km/h
394 11-05-2016 08:45:00 12.7 C 10.8 g/m*3 12.7 C 0 km/h
395 11-05-2016 08:50:00 12.7 C 10.8 g/m*3 12.7 C 0 km/h
396 11-05-2016 08:55:00 12.7 C 10.8 g/m*3 12.7 C 0 km/h
397 11-05-2016 09:00:00 12.8 C 10.87 g/m*3 12.8 C 0 km/h
398 11-05-2016 09:05:00 12.8 C 10.87 g/m*3 12.8 C 0 km/h
399 11-05-2016 09:10:00 12.9 C 10.93 g/m*3 12.9 C 0 km/h
400 11-05-2016 09:15:00 13.1 C 11.07 g/m*3 13.1 C 0 km/h
Sensor: Nr:Datum:Temp:Abs-Feuchte:Windchill:Wind:
Aussen-T/F 401 11-05-2016 09:20:00 13.2 C 11.14 g/m*3 13.2 C 0 km/h
402 11-05-2016 09:25:00 13.3 C 11.21 g/m*3 13.3 C 1.6 km/h
403 11-05-2016 09:30:00 13.4 C 11.28 g/m*3 13.4 C 0 km/h
404 11-05-2016 09:35:00 13.7 C 11.49 g/m*3 13.7 C 1.6 km/h
405 11-05-2016 09:40:00 13.8 C 11.56 g/m*3 13.8 C 0 km/h
406 11-05-2016 09:45:00 14 C 11.7 g/m*3 14 C 1.6 km/h
407 11-05-2016 09:50:00 14.2 C 11.84 g/m*3 14.2 C 0 km/h
408 11-05-2016 09:55:00 14.4 C 11.99 g/m*3 14.4 C 1.6 km/h
409 11-05-2016 10:00:00 14.6 C 12.14 g/m*3 14.6 C 1.6 km/h
410 11-05-2016 10:05:00 14.7 C 12.21 g/m*3 14.7 C 0 km/h
411 11-05-2016 10:10:00 14.8 C 12.29 g/m*3 14.8 C 0 km/h
412 11-05-2016 10:15:00 15 C 12.44 g/m*3 15 C 1.6 km/h
413 11-05-2016 10:20:00 15.1 C 12.51 g/m*3 15.1 C 0 km/h
414 11-05-2016 10:25:00 15.3 C 12.67 g/m*3 15.3 C 1.6 km/h
415 11-05-2016 10:30:00 15.5 C 12.69 g/m*3 15.5 C 4.8 km/h
416 11-05-2016 10:35:00 15.8 C 12.79 g/m*3 15.8 C 4.8 km/h
417 11-05-2016 10:40:00 16.2 C 12.82 g/m*3 16.2 C 4.8 km/h
418 11-05-2016 10:45:00 16.6 C 13 g/m*3 16.6 C 0 km/h
419 11-05-2016 10:50:00 16.8 C 13.15 g/m*3 16.8 C 0 km/h
420 11-05-2016 10:55:00 16.9 C 13.09 g/m*3 16.9 C 0 km/h
421 11-05-2016 11:00:00 17.1 C 13.25 g/m*3 17.1 C 1.6 km/h
422 11-05-2016 11:05:00 17.1 C 13.25 g/m*3 17.1 C 0 km/h
423 11-05-2016 11:10:00 17.2 C 13.03 g/m*3 17.2 C 1.6 km/h
424 11-05-2016 11:15:00 17.3 C 13.26 g/m*3 17.3 C 1.6 km/h
425 11-05-2016 11:20:00 17.4 C 13.34 g/m*3 17.4 C 0 km/h
Sensor: Nr:Datum:Temp:Abs-Feuchte:Windchill:Wind:
Aussen-T/F 426 11-05-2016 11:25:00 17.6 C 13.35 g/m*3 17.6 C 1.6 km/h
427 11-05-2016 11:30:00 17.7 C 12.82 g/m*3 17.7 C 3.2 km/h
428 11-05-2016 11:35:00 18.2 C 12.59 g/m*3 18.2 C 8.1 km/h
429 11-05-2016 11:40:00 18.9 C 12.64 g/m*3 18.9 C 8.1 km/h
430 11-05-2016 11:45:00 19.4 C 12.35 g/m*3 19.4 C 12.9 km/h
431 11-05-2016 11:50:00 19.6 C 12.49 g/m*3 19.6 C 6.4 km/h
432 11-05-2016 11:55:00 19.7 C 12.4 g/m*3 19.7 C 6.4 km/h
433 11-05-2016 12:00:00 19.9 C 12.54 g/m*3 19.9 C 11.3 km/h
434 11-05-2016 12:05:00 20.1 C 12.34 g/m*3 20.1 C 9.7 km/h
435 11-05-2016 12:10:00 20.2 C 12.24 g/m*3 20.2 C 9.7 km/h
436 11-05-2016 12:15:00 20.3 C 12.66 g/m*3 20.3 C 6.4 km/h
437 11-05-2016 12:20:00 20.3 C 12.49 g/m*3 20.3 C 8.1 km/h
438 11-05-2016 12:25:00 20.5 C 12.46 g/m*3 20.5 C 8.1 km/h
439 11-05-2016 12:30:00 20.7 C 12.42 g/m*3 20.7 C 12.9 km/h
440 11-05-2016 12:35:00 20.9 C 12.38 g/m*3 20.9 C 11.3 km/h
441 11-05-2016 12:40:00 21 C 12.64 g/m*3 21 C 4.8 km/h
442 11-05-2016 12:45:00 21.1 C 12.71 g/m*3 21.1 C 4.8 km/h
443 11-05-2016 12:50:00 21.2 C 12.79 g/m*3 21.2 C 6.4 km/h
444 11-05-2016 12:55:00 21.4 C 12.56 g/m*3 21.4 C 12.9 km/h
445 11-05-2016 13:00:00 21.6 C 12.52 g/m*3 21.6 C 8.1 km/h
446 11-05-2016 13:05:00 21.7 C 12.59 g/m*3 21.7 C 11.3 km/h
447 11-05-2016 13:10:00 21.8 C 12.28 g/m*3 21.8 C 12.9 km/h
448 11-05-2016 13:15:00 21.9 C 12.54 g/m*3 21.9 C 11.3 km/h
449 11-05-2016 13:20:00 21.9 C 12.35 g/m*3 21.9 C 9.7 km/h
450 11-05-2016 13:25:00 22 C 12.62 g/m*3 22 C 12.9 km/h
Sensor: Nr:Datum:Temp:Abs-Feuchte:Windchill:Wind:
Aussen-T/F 451 11-05-2016 13:30:00 22.1 C 12.49 g/m*3 22.1 C 4.8 km/h
452 11-05-2016 13:35:00 22.2 C 12.57 g/m*3 22.2 C 6.4 km/h
453 11-05-2016 13:40:00 22.3 C 12.24 g/m*3 22.3 C 9.7 km/h
454 11-05-2016 13:45:00 22.4 C 12.71 g/m*3 22.4 C 6.4 km/h
455 11-05-2016 13:50:00 22.4 C 12.31 g/m*3 22.4 C 6.4 km/h
456 11-05-2016 13:55:00 22.6 C 11.85 g/m*3 22.6 C 9.7 km/h
457 11-05-2016 14:00:00 22.7 C 11.92 g/m*3 22.7 C 9.7 km/h
458 11-05-2016 14:05:00 22.8 C 11.58 g/m*3 22.8 C 12.9 km/h
459 11-05-2016 14:10:00 22.9 C 11.85 g/m*3 22.9 C 6.4 km/h
460 11-05-2016 14:15:00 23.1 C 11.78 g/m*3 23.1 C 9.7 km/h
461 11-05-2016 14:20:00 23.3 C 11.5 g/m*3 23.3 C 9.7 km/h
462 11-05-2016 14:25:00 23.5 C 11.42 g/m*3 23.5 C 8.1 km/h
463 11-05-2016 14:30:00 23.7 C 11.12 g/m*3 23.7 C 11.3 km/h
464 11-05-2016 14:35:00 23.8 C 10.76 g/m*3 23.8 C 16.1 km/h
465 11-05-2016 14:40:00 23.8 C 10.76 g/m*3 23.8 C 16.1 km/h
466 11-05-2016 14:45:00 23.8 C 10.76 g/m*3 23.8 C 14.5 km/h
467 11-05-2016 14:50:00 24 C 11.1 g/m*3 24 C 9.7 km/h
468 11-05-2016 14:55:00 24.1 C 10.72 g/m*3 24.1 C 11.3 km/h
469 11-05-2016 15:00:00 23.9 C 10.6 g/m*3 23.9 C 12.9 km/h
470 11-05-2016 15:05:00 23.9 C 10.82 g/m*3 23.9 C 8.1 km/h
471 11-05-2016 15:10:00 24.1 C 11.16 g/m*3 24.1 C 6.4 km/h
472 11-05-2016 15:15:00 24.3 C 11.29 g/m*3 24.3 C 11.3 km/h
473 11-05-2016 15:20:00 24.2 C 10.78 g/m*3 24.2 C 11.3 km/h
474 11-05-2016 15:25:00 24.1 C 11.16 g/m*3 24.1 C 8.1 km/h
475 11-05-2016 15:30:00 24.2 C 11.22 g/m*3 24.2 C 9.7 km/h
Sensor: Nr:Datum:Temp:Abs-Feuchte:Windchill:Wind:
Aussen-T/F 476 11-05-2016 15:35:00 24.3 C 11.73 g/m*3 24.3 C 6.4 km/h
477 11-05-2016 15:40:00 24.5 C 11.41 g/m*3 24.5 C 11.3 km/h
478 11-05-2016 15:45:00 24.6 C 11.93 g/m*3 24.6 C 11.3 km/h
479 11-05-2016 15:50:00 24.9 C 11.22 g/m*3 24.9 C 14.5 km/h
480 11-05-2016 15:55:00 25.1 C 11.57 g/m*3 25.1 C 19.3 km/h
481 11-05-2016 16:00:00 25.2 C 11.17 g/m*3 25.2 C 19.3 km/h
482 11-05-2016 16:05:00 25.4 C 11.3 g/m*3 25.4 C 12.9 km/h
483 11-05-2016 16:10:00 25.6 C 11.9 g/m*3 25.6 C 11.3 km/h
484 11-05-2016 16:15:00 25.8 C 11.56 g/m*3 25.8 C 14.5 km/h
485 11-05-2016 16:20:00 25.6 C 11.67 g/m*3 25.6 C 12.9 km/h
486 11-05-2016 16:25:00 25.5 C 11.13 g/m*3 25.5 C 12.9 km/h
487 11-05-2016 16:30:00 25.2 C 10.71 g/m*3 25.2 C 11.3 km/h
488 11-05-2016 16:35:00 25.3 C 11 g/m*3 25.3 C 16.1 km/h
489 11-05-2016 16:40:00 25.3 C 11 g/m*3 25.3 C 19.3 km/h
490 11-05-2016 16:45:00 25.3 C 10.77 g/m*3 25.3 C 16.1 km/h
491 11-05-2016 16:50:00 25.1 C 11.57 g/m*3 25.1 C 12.9 km/h
492 11-05-2016 16:55:00 25.2 C 11.17 g/m*3 25.2 C 11.3 km/h
493 11-05-2016 17:00:00 25.2 C 10.94 g/m*3 25.2 C 6.4 km/h
494 11-05-2016 17:05:00 25.3 C 10.77 g/m*3 25.3 C 11.3 km/h
495 11-05-2016 17:10:00 25.2 C 10.48 g/m*3 25.2 C 12.9 km/h
496 11-05-2016 17:15:00 24.8 C 10.7 g/m*3 24.8 C 12.9 km/h
497 11-05-2016 17:20:00 25 C 11.05 g/m*3 25 C 9.7 km/h
498 11-05-2016 17:25:00 25.3 C 11 g/m*3 25.3 C 9.7 km/h
499 11-05-2016 17:30:00 25.6 C 10.71 g/m*3 25.6 C 11.3 km/h
500 11-05-2016 17:35:00 25.4 C 10.36 g/m*3 25.4 C 9.7 km/h
Sensor: Nr:Datum:Temp:Abs-Feuchte:Windchill:Wind:
Aussen-T/F 501 11-05-2016 17:40:00 25.3 C 10.3 g/m*3 25.3 C 12.9 km/h
502 11-05-2016 17:45:00 25.3 C 10.07 g/m*3 25.3 C 9.7 km/h
503 11-05-2016 17:50:00 25.3 C 10.3 g/m*3 25.3 C 8.1 km/h
504 11-05-2016 17:55:00 25.4 C 10.36 g/m*3 25.4 C 14.5 km/h
505 11-05-2016 18:00:00 25.1 C 9.95 g/m*3 25.1 C 19.3 km/h
506 11-05-2016 18:05:00 24.8 C 10.02 g/m*3 24.8 C 8.1 km/h
507 11-05-2016 18:10:00 24.7 C 10.19 g/m*3 24.7 C 9.7 km/h
508 11-05-2016 18:15:00 24.8 C 10.24 g/m*3 24.8 C 6.4 km/h
509 11-05-2016 18:20:00 24.7 C 9.96 g/m*3 24.7 C 11.3 km/h
510 11-05-2016 18:25:00 24.9 C 10.07 g/m*3 24.9 C 4.8 km/h
511 11-05-2016 18:30:00 25.1 C 10.19 g/m*3 25.1 C 12.9 km/h
512 11-05-2016 18:35:00 25.2 C 10.01 g/m*3 25.2 C 3.2 km/h
513 11-05-2016 18:40:00 25.2 C 9.78 g/m*3 25.2 C 9.7 km/h
514 11-05-2016 18:45:00 25.2 C 9.78 g/m*3 25.2 C 6.4 km/h
515 11-05-2016 18:50:00 25.2 C 10.71 g/m*3 25.2 C 4.8 km/h
516 11-05-2016 18:55:00 24.9 C 9.61 g/m*3 24.9 C 6.4 km/h
517 11-05-2016 19:00:00 24.6 C 9.9 g/m*3 24.6 C 4.8 km/h
518 11-05-2016 19:05:00 24.3 C 9.74 g/m*3 24.3 C 12.9 km/h
519 11-05-2016 19:10:00 24.2 C 10.34 g/m*3 24.2 C 4.8 km/h
520 11-05-2016 19:15:00 24.3 C 9.96 g/m*3 24.3 C 11.3 km/h
521 11-05-2016 19:20:00 24.3 C 9.96 g/m*3 24.3 C 3.2 km/h
522 11-05-2016 19:25:00 24.3 C 9.74 g/m*3 24.3 C 8.1 km/h
523 11-05-2016 19:30:00 24.2 C 9.9 g/m*3 24.2 C 4.8 km/h
524 11-05-2016 19:35:00 24.1 C 10.5 g/m*3 24.1 C 4.8 km/h
525 11-05-2016 19:40:00 23.9 C 10.38 g/m*3 23.9 C 3.2 km/h
Sensor: Nr:Datum:Temp:Abs-Feuchte:Windchill:Wind:
Aussen-T/F 526 11-05-2016 19:45:00 23.8 C 9.25 g/m*3 23.8 C 4.8 km/h
527 11-05-2016 19:50:00 23.7 C 10.27 g/m*3 23.7 C 6.4 km/h
528 11-05-2016 19:55:00 23.6 C 9.78 g/m*3 23.6 C 0 km/h
529 11-05-2016 20:00:00 23.4 C 10.72 g/m*3 23.4 C 1.6 km/h
530 11-05-2016 20:05:00 23.1 C 11.58 g/m*3 23.1 C 1.6 km/h
531 11-05-2016 20:10:00 22.7 C 11.11 g/m*3 22.7 C 0 km/h
532 11-05-2016 20:15:00 22.2 C 10.6 g/m*3 22.2 C 3.2 km/h
533 11-05-2016 20:20:00 21.8 C 10.94 g/m*3 21.8 C 1.6 km/h
534 11-05-2016 20:25:00 21.3 C 10.81 g/m*3 21.3 C 0 km/h
535 11-05-2016 20:30:00 20.8 C 10.5 g/m*3 20.8 C 0 km/h
536 11-05-2016 20:35:00 20.4 C 10.61 g/m*3 20.4 C 0 km/h
537 11-05-2016 20:40:00 19.9 C 10.48 g/m*3 19.9 C 0 km/h
538 11-05-2016 20:45:00 19.6 C 10.3 g/m*3 19.6 C 0 km/h
539 11-05-2016 20:50:00 19.2 C 10.22 g/m*3 19.2 C 1.6 km/h
540 11-05-2016 20:55:00 18.9 C 10.21 g/m*3 18.9 C 1.6 km/h
541 11-05-2016 21:00:00 18.6 C 9.87 g/m*3 18.6 C 1.6 km/h
542 11-05-2016 21:05:00 18.3 C 9.69 g/m*3 18.3 C 1.6 km/h
543 11-05-2016 21:10:00 18.1 C 9.58 g/m*3 18.1 C 1.6 km/h
544 11-05-2016 21:15:00 17.9 C 9.62 g/m*3 17.9 C 1.6 km/h
545 11-05-2016 21:20:00 17.7 C 9.66 g/m*3 17.7 C 1.6 km/h
546 11-05-2016 21:25:00 17.6 C 9.9 g/m*3 17.6 C 1.6 km/h
547 11-05-2016 21:30:00 17.4 C 9.78 g/m*3 17.4 C 1.6 km/h
548 11-05-2016 21:35:00 17.3 C 9.87 g/m*3 17.3 C 0 km/h
549 11-05-2016 21:40:00 17.2 C 9.67 g/m*3 17.2 C 1.6 km/h
550 11-05-2016 21:45:00 17.1 C 9.75 g/m*3 17.1 C 0 km/h
Sensor: Nr:Datum:Temp:Abs-Feuchte:Windchill:Wind:
Aussen-T/F 551 11-05-2016 21:50:00 17.1 C 9.9 g/m*3 17.1 C 0 km/h
552 11-05-2016 21:55:00 16.9 C 9.92 g/m*3 16.9 C 0 km/h
553 11-05-2016 22:00:00 16.9 C 9.78 g/m*3 16.9 C 0 km/h
554 11-05-2016 22:05:00 16.8 C 9.87 g/m*3 16.8 C 0 km/h
555 11-05-2016 22:10:00 16.8 C 9.87 g/m*3 16.8 C 0 km/h
556 11-05-2016 22:15:00 16.7 C 9.81 g/m*3 16.7 C 0 km/h
557 11-05-2016 22:20:00 16.7 C 9.81 g/m*3 16.7 C 0 km/h
558 11-05-2016 22:25:00 16.7 C 9.81 g/m*3 16.7 C 0 km/h
559 11-05-2016 22:30:00 16.7 C 9.81 g/m*3 16.7 C 0 km/h
560 11-05-2016 22:35:00 16.7 C 9.81 g/m*3 16.7 C 0 km/h
561 11-05-2016 22:40:00 16.6 C 9.75 g/m*3 16.6 C 0 km/h
562 11-05-2016 22:45:00 16.6 C 9.89 g/m*3 16.6 C 0 km/h
563 11-05-2016 22:50:00 16.5 C 9.83 g/m*3 16.5 C 0 km/h
564 11-05-2016 22:55:00 16.5 C 9.83 g/m*3 16.5 C 0 km/h
565 11-05-2016 23:00:00 16.4 C 9.77 g/m*3 16.4 C 0 km/h
566 11-05-2016 23:05:00 16.4 C 9.91 g/m*3 16.4 C 0 km/h
567 11-05-2016 23:10:00 16.3 C 9.85 g/m*3 16.3 C 0 km/h
568 11-05-2016 23:15:00 16.3 C 9.85 g/m*3 16.3 C 0 km/h
569 11-05-2016 23:20:00 16.3 C 9.85 g/m*3 16.3 C 0 km/h
570 11-05-2016 23:25:00 16.3 C 9.85 g/m*3 16.3 C 0 km/h
571 11-05-2016 23:30:00 16.3 C 9.99 g/m*3 16.3 C 0 km/h
572 11-05-2016 23:35:00 16.2 C 9.93 g/m*3 16.2 C 0 km/h
573 11-05-2016 23:40:00 16.2 C 9.93 g/m*3 16.2 C 0 km/h
574 11-05-2016 23:45:00 16.2 C 10.07 g/m*3 16.2 C 0 km/h
575 11-05-2016 23:50:00 16.1 C 10.14 g/m*3 16.1 C 0 km/h
Sensor: Nr:Datum:Temp:Abs-Feuchte:Windchill:Wind:
Aussen-T/F 576 11-05-2016 23:55:00 16.1 C 10.28 g/m*3 16.1 C 0 km/h
577 12-05-2016 00:00:00 16 C 10.35 g/m*3 16 C 0 km/h
578 12-05-2016 00:05:00 15.9 C 10.29 g/m*3 15.9 C 0 km/h
579 12-05-2016 00:10:00 15.9 C 10.43 g/m*3 15.9 C 0 km/h
580 12-05-2016 00:15:00 15.8 C 10.36 g/m*3 15.8 C 0 km/h
581 12-05-2016 00:20:00 15.8 C 10.23 g/m*3 15.8 C 0 km/h
582 12-05-2016 00:25:00 15.8 C 10.36 g/m*3 15.8 C 1.6 km/h
583 12-05-2016 00:30:00 15.8 C 10.23 g/m*3 15.8 C 1.6 km/h
584 12-05-2016 00:35:00 15.8 C 10.23 g/m*3 15.8 C 0 km/h
585 12-05-2016 00:40:00 15.8 C 10.1 g/m*3 15.8 C 0 km/h
586 12-05-2016 00:45:00 15.7 C 10.17 g/m*3 15.7 C 0 km/h
587 12-05-2016 00:50:00 15.7 C 10.3 g/m*3 15.7 C 0 km/h
588 12-05-2016 00:55:00 15.6 C 10.24 g/m*3 15.6 C 0 km/h
589 12-05-2016 01:00:00 15.6 C 10.37 g/m*3 15.6 C 0 km/h
590 12-05-2016 01:05:00 15.6 C 10.24 g/m*3 15.6 C 0 km/h
591 12-05-2016 01:10:00 15.6 C 10.24 g/m*3 15.6 C 0 km/h
592 12-05-2016 01:15:00 15.7 C 10.3 g/m*3 15.7 C 0 km/h
593 12-05-2016 01:20:00 15.7 C 10.17 g/m*3 15.7 C 0 km/h
594 12-05-2016 01:25:00 15.7 C 10.17 g/m*3 15.7 C 0 km/h
595 12-05-2016 01:30:00 15.8 C 10.1 g/m*3 15.8 C 0 km/h
596 12-05-2016 01:35:00 15.8 C 10.23 g/m*3 15.8 C 0 km/h
597 12-05-2016 01:40:00 15.8 C 10.23 g/m*3 15.8 C 0 km/h
598 12-05-2016 01:45:00 15.7 C 10.17 g/m*3 15.7 C 0 km/h
599 12-05-2016 01:50:00 15.7 C 10.3 g/m*3 15.7 C 0 km/h
600 12-05-2016 01:55:00 15.6 C 10.24 g/m*3 15.6 C 0 km/h
Sensor: Nr:Datum:Temp:Abs-Feuchte:Windchill:Wind:
Aussen-T/F 601 12-05-2016 02:00:00 15.6 C 9.97 g/m*3 15.6 C 0 km/h
602 12-05-2016 02:05:00 15.6 C 10.11 g/m*3 15.6 C 0 km/h
603 12-05-2016 02:10:00 15.5 C 10.18 g/m*3 15.5 C 0 km/h
604 12-05-2016 02:15:00 15.4 C 10.12 g/m*3 15.4 C 0 km/h
605 12-05-2016 02:20:00 15.4 C 10.12 g/m*3 15.4 C 0 km/h
606 12-05-2016 02:25:00 15.3 C 10.06 g/m*3 15.3 C 0 km/h
607 12-05-2016 02:30:00 15.3 C 10.06 g/m*3 15.3 C 0 km/h
608 12-05-2016 02:35:00 15.3 C 10.19 g/m*3 15.3 C 0 km/h
609 12-05-2016 02:40:00 15.3 C 10.19 g/m*3 15.3 C 0 km/h
610 12-05-2016 02:45:00 15.2 C 10.12 g/m*3 15.2 C 0 km/h
611 12-05-2016 02:50:00 15.1 C 10.19 g/m*3 15.1 C 0 km/h
612 12-05-2016 02:55:00 15.1 C 10.06 g/m*3 15.1 C 0 km/h
613 12-05-2016 03:00:00 15.1 C 10.06 g/m*3 15.1 C 0 km/h
614 12-05-2016 03:05:00 15.1 C 10.06 g/m*3 15.1 C 0 km/h
615 12-05-2016 03:10:00 15.1 C 9.8 g/m*3 15.1 C 3.2 km/h
616 12-05-2016 03:15:00 15.2 C 10.12 g/m*3 15.2 C 0 km/h
617 12-05-2016 03:20:00 15.2 C 10.12 g/m*3 15.2 C 0 km/h
618 12-05-2016 03:25:00 15.1 C 9.93 g/m*3 15.1 C 0 km/h
619 12-05-2016 03:30:00 15 C 10 g/m*3 15 C 0 km/h
620 12-05-2016 03:35:00 14.9 C 9.94 g/m*3 14.9 C 0 km/h
621 12-05-2016 03:40:00 14.8 C 9.88 g/m*3 14.8 C 0 km/h
622 12-05-2016 03:45:00 14.8 C 9.88 g/m*3 14.8 C 0 km/h
623 12-05-2016 03:50:00 14.7 C 9.95 g/m*3 14.7 C 0 km/h
624 12-05-2016 03:55:00 14.7 C 9.82 g/m*3 14.7 C 0 km/h
625 12-05-2016 04:00:00 14.6 C 9.89 g/m*3 14.6 C 0 km/h
Sensor: Nr:Datum:Temp:Abs-Feuchte:Windchill:Wind:
Aussen-T/F 626 12-05-2016 04:05:00 14.6 C 9.89 g/m*3 14.6 C 0 km/h
627 12-05-2016 04:10:00 14.6 C 9.89 g/m*3 14.6 C 0 km/h
628 12-05-2016 04:15:00 14.6 C 9.89 g/m*3 14.6 C 0 km/h
629 12-05-2016 04:20:00 14.6 C 9.89 g/m*3 14.6 C 0 km/h
630 12-05-2016 04:25:00 14.6 C 9.89 g/m*3 14.6 C 0 km/h
631 12-05-2016 04:30:00 14.6 C 9.89 g/m*3 14.6 C 0 km/h
632 12-05-2016 04:35:00 14.6 C 9.89 g/m*3 14.6 C 0 km/h
633 12-05-2016 04:40:00 14.6 C 9.89 g/m*3 14.6 C 0 km/h
634 12-05-2016 04:45:00 14.6 C 9.89 g/m*3 14.6 C 0 km/h
635 12-05-2016 04:50:00 14.5 C 9.83 g/m*3 14.5 C 0 km/h
636 12-05-2016 04:55:00 14.5 C 9.83 g/m*3 14.5 C 0 km/h
637 12-05-2016 05:00:00 14.4 C 9.89 g/m*3 14.4 C 0 km/h
638 12-05-2016 05:05:00 14.4 C 9.89 g/m*3 14.4 C 0 km/h
639 12-05-2016 05:10:00 14.3 C 9.71 g/m*3 14.3 C 0 km/h
640 12-05-2016 05:15:00 14.3 C 9.71 g/m*3 14.3 C 0 km/h
641 12-05-2016 05:20:00 14.3 C 9.83 g/m*3 14.3 C 0 km/h
642 12-05-2016 05:25:00 14.2 C 9.65 g/m*3 14.2 C 0 km/h
643 12-05-2016 05:30:00 14.2 C 9.77 g/m*3 14.2 C 0 km/h
644 12-05-2016 05:35:00 14.1 C 9.71 g/m*3 14.1 C 0 km/h
645 12-05-2016 05:40:00 14.1 C 9.71 g/m*3 14.1 C 0 km/h
646 12-05-2016 05:45:00 14 C 9.65 g/m*3 14 C 0 km/h
647 12-05-2016 05:50:00 13.9 C 9.59 g/m*3 13.9 C 0 km/h
648 12-05-2016 05:55:00 13.8 C 9.53 g/m*3 13.8 C 0 km/h
649 12-05-2016 06:00:00 13.8 C 9.65 g/m*3 13.8 C 1.6 km/h
650 12-05-2016 06:05:00 13.8 C 9.65 g/m*3 13.8 C 0 km/h
Sensor: Nr:Datum:Temp:Abs-Feuchte:Windchill:Wind:
Aussen-T/F 651 12-05-2016 06:10:00 13.8 C 9.65 g/m*3 13.8 C 0 km/h
652 12-05-2016 06:15:00 13.8 C 9.65 g/m*3 13.8 C 0 km/h
653 12-05-2016 06:20:00 13.8 C 9.77 g/m*3 13.8 C 0 km/h
654 12-05-2016 06:25:00 13.8 C 9.77 g/m*3 13.8 C 0 km/h
655 12-05-2016 06:30:00 13.8 C 9.65 g/m*3 13.8 C 0 km/h
656 12-05-2016 06:35:00 13.8 C 9.77 g/m*3 13.8 C 0 km/h
657 12-05-2016 06:40:00 13.8 C 9.77 g/m*3 13.8 C 0 km/h
658 12-05-2016 06:45:00 13.9 C 9.83 g/m*3 13.9 C 0 km/h
659 12-05-2016 06:50:00 14 C 9.77 g/m*3 14 C 0 km/h
660 12-05-2016 06:55:00 14.2 C 9.89 g/m*3 14.2 C 1.6 km/h
661 12-05-2016 07:00:00 14.4 C 9.77 g/m*3 14.4 C 4.8 km/h
662 12-05-2016 07:05:00 14.6 C 9.51 g/m*3 14.6 C 6.4 km/h
663 12-05-2016 07:10:00 15.1 C 9.55 g/m*3 15.1 C 9.7 km/h
664 12-05-2016 07:15:00 15.4 C 9.85 g/m*3 15.4 C 4.8 km/h
665 12-05-2016 07:20:00 15.6 C 9.71 g/m*3 15.6 C 3.2 km/h
666 12-05-2016 07:25:00 15.7 C 9.63 g/m*3 15.7 C 3.2 km/h
667 12-05-2016 07:30:00 15.8 C 9.96 g/m*3 15.8 C 1.6 km/h
668 12-05-2016 07:35:00 15.8 C 9.56 g/m*3 15.8 C 4.8 km/h
669 12-05-2016 07:40:00 15.9 C 9.62 g/m*3 15.9 C 6.4 km/h
670 12-05-2016 07:45:00 15.9 C 9.62 g/m*3 15.9 C 8.1 km/h
671 12-05-2016 07:50:00 16 C 9.54 g/m*3 16 C 4.8 km/h
672 12-05-2016 07:55:00 16.1 C 9.46 g/m*3 16.1 C 6.4 km/h
673 12-05-2016 08:00:00 16.1 C 9.46 g/m*3 16.1 C 6.4 km/h
674 12-05-2016 08:05:00 16.2 C 9.52 g/m*3 16.2 C 4.8 km/h
675 12-05-2016 08:10:00 16.2 C 9.52 g/m*3 16.2 C 3.2 km/h
Sensor: Nr:Datum:Temp:Abs-Feuchte:Windchill:Wind:
Aussen-T/F 676 12-05-2016 08:15:00 16.2 C 9.38 g/m*3 16.2 C 3.2 km/h
677 12-05-2016 08:20:00 16.2 C 9.79 g/m*3 16.2 C 1.6 km/h
678 12-05-2016 08:25:00 16.2 C 9.52 g/m*3 16.2 C 3.2 km/h
679 12-05-2016 08:30:00 16.2 C 9.52 g/m*3 16.2 C 1.6 km/h
680 12-05-2016 08:35:00 16.1 C 9.6 g/m*3 16.1 C 3.2 km/h
681 12-05-2016 08:40:00 16.1 C 9.46 g/m*3 16.1 C 4.8 km/h
682 12-05-2016 08:45:00 16.2 C 9.38 g/m*3 16.2 C 9.7 km/h
683 12-05-2016 08:50:00 16.2 C 9.52 g/m*3 16.2 C 3.2 km/h
684 12-05-2016 08:55:00 16.2 C 9.52 g/m*3 16.2 C 4.8 km/h
685 12-05-2016 09:00:00 16.3 C 9.71 g/m*3 16.3 C 3.2 km/h
686 12-05-2016 09:05:00 16.3 C 9.57 g/m*3 16.3 C 1.6 km/h
687 12-05-2016 09:10:00 16.4 C 9.77 g/m*3 16.4 C 1.6 km/h
688 12-05-2016 09:15:00 16.6 C 10.03 g/m*3 16.6 C 1.6 km/h
689 12-05-2016 09:20:00 16.7 C 9.66 g/m*3 16.7 C 3.2 km/h
690 12-05-2016 09:25:00 16.8 C 10.01 g/m*3 16.8 C 8.1 km/h
691 12-05-2016 09:30:00 16.9 C 10.07 g/m*3 16.9 C 3.2 km/h
692 12-05-2016 09:35:00 17.1 C 9.9 g/m*3 17.1 C 6.4 km/h
693 12-05-2016 09:40:00 17.1 C 9.75 g/m*3 17.1 C 8.1 km/h
694 12-05-2016 09:45:00 17.2 C 9.96 g/m*3 17.2 C 6.4 km/h
695 12-05-2016 09:50:00 17.2 C 9.81 g/m*3 17.2 C 6.4 km/h
696 12-05-2016 09:55:00 17.2 C 9.96 g/m*3 17.2 C 8.1 km/h
697 12-05-2016 10:00:00 17.2 C 9.96 g/m*3 17.2 C 1.6 km/h
698 12-05-2016 10:05:00 17.3 C 10.02 g/m*3 17.3 C 3.2 km/h
699 12-05-2016 10:10:00 17.3 C 10.02 g/m*3 17.3 C 8.1 km/h
700 12-05-2016 10:15:00 17.3 C 9.87 g/m*3 17.3 C 8.1 km/h
Sensor: Nr:Datum:Temp:Abs-Feuchte:Windchill:Wind:
Aussen-T/F 701 12-05-2016 10:20:00 17.5 C 10.29 g/m*3 17.5 C 4.8 km/h
702 12-05-2016 10:25:00 17.6 C 10.05 g/m*3 17.6 C 3.2 km/h
703 12-05-2016 10:30:00 17.7 C 9.96 g/m*3 17.7 C 4.8 km/h
704 12-05-2016 10:35:00 17.8 C 9.87 g/m*3 17.8 C 8.1 km/h
705 12-05-2016 10:40:00 17.9 C 9.92 g/m*3 17.9 C 12.9 km/h
706 12-05-2016 10:45:00 18.1 C 10.04 g/m*3 18.1 C 9.7 km/h
707 12-05-2016 10:50:00 18.1 C 9.89 g/m*3 18.1 C 11.3 km/h
708 12-05-2016 10:55:00 18.1 C 10.2 g/m*3 18.1 C 4.8 km/h
709 12-05-2016 11:00:00 18.1 C 10.04 g/m*3 18.1 C 4.8 km/h
710 12-05-2016 11:05:00 18.2 C 10.1 g/m*3 18.2 C 9.7 km/h
711 12-05-2016 11:10:00 18.2 C 10.1 g/m*3 18.2 C 11.3 km/h
712 12-05-2016 11:15:00 18.2 C 9.95 g/m*3 18.2 C 11.3 km/h
713 12-05-2016 11:20:00 18.3 C 10.16 g/m*3 18.3 C 11.3 km/h
714 12-05-2016 11:25:00 18.3 C 10.16 g/m*3 18.3 C 11.3 km/h
715 12-05-2016 11:30:00 18.3 C 10.16 g/m*3 18.3 C 9.7 km/h
716 12-05-2016 11:35:00 18.3 C 10.16 g/m*3 18.3 C 9.7 km/h
717 12-05-2016 11:40:00 18.2 C 10.1 g/m*3 18.2 C 11.3 km/h
718 12-05-2016 11:45:00 18.2 C 10.1 g/m*3 18.2 C 11.3 km/h
719 12-05-2016 11:50:00 18.2 C 10.41 g/m*3 18.2 C 8.1 km/h
720 12-05-2016 11:55:00 18.2 C 10.41 g/m*3 18.2 C 6.4 km/h
721 12-05-2016 12:00:00 18.2 C 10.26 g/m*3 18.2 C 8.1 km/h
722 12-05-2016 12:05:00 18.2 C 10.26 g/m*3 18.2 C 9.7 km/h
723 12-05-2016 12:10:00 18.4 C 10.38 g/m*3 18.4 C 9.7 km/h
724 12-05-2016 12:15:00 18.6 C 10.5 g/m*3 18.6 C 9.7 km/h
725 12-05-2016 12:20:00 18.9 C 10.53 g/m*3 18.9 C 12.9 km/h
Sensor: Nr:Datum:Temp:Abs-Feuchte:Windchill:Wind:
Aussen-T/F 726 12-05-2016 12:25:00 19.1 C 10.66 g/m*3 19.1 C 14.5 km/h
727 12-05-2016 12:30:00 19.1 C 10.49 g/m*3 19.1 C 16.1 km/h
728 12-05-2016 12:35:00 19.2 C 10.88 g/m*3 19.2 C 8.1 km/h
729 12-05-2016 12:40:00 19.5 C 10.74 g/m*3 19.5 C 6.4 km/h
730 12-05-2016 12:45:00 19.6 C 10.64 g/m*3 19.6 C 6.4 km/h
731 12-05-2016 12:50:00 19.6 C 10.64 g/m*3 19.6 C 11.3 km/h
732 12-05-2016 12:55:00 19.4 C 10.68 g/m*3 19.4 C 12.9 km/h
733 12-05-2016 13:00:00 19.6 C 10.8 g/m*3 19.6 C 4.8 km/h
734 12-05-2016 13:05:00 19.7 C 10.87 g/m*3 19.7 C 4.8 km/h
735 12-05-2016 13:10:00 19.9 C 11 g/m*3 19.9 C 4.8 km/h
736 12-05-2016 13:15:00 20.2 C 11.19 g/m*3 20.2 C 3.2 km/h
737 12-05-2016 13:20:00 20.3 C 10.9 g/m*3 20.3 C 4.8 km/h
738 12-05-2016 13:25:00 20.3 C 11.08 g/m*3 20.3 C 4.8 km/h
739 12-05-2016 13:30:00 20.2 C 10.84 g/m*3 20.2 C 6.4 km/h
740 12-05-2016 13:35:00 20.3 C 10.9 g/m*3 20.3 C 3.2 km/h
741 12-05-2016 13:40:00 20.4 C 11.32 g/m*3 20.4 C 1.6 km/h
742 12-05-2016 13:45:00 20.6 C 11.28 g/m*3 20.6 C 3.2 km/h
743 12-05-2016 13:50:00 20.6 C 11.28 g/m*3 20.6 C 3.2 km/h
744 12-05-2016 13:55:00 20.6 C 11.1 g/m*3 20.6 C 4.8 km/h
745 12-05-2016 14:00:00 20.6 C 11.28 g/m*3 20.6 C 6.4 km/h
746 12-05-2016 14:05:00 20.7 C 11.52 g/m*3 20.7 C 3.2 km/h
747 12-05-2016 14:10:00 20.8 C 11.23 g/m*3 20.8 C 3.2 km/h
748 12-05-2016 14:15:00 20.9 C 10.93 g/m*3 20.9 C 8.1 km/h
749 12-05-2016 14:20:00 20.8 C 10.86 g/m*3 20.8 C 4.8 km/h
750 12-05-2016 14:25:00 20.9 C 11.11 g/m*3 20.9 C 4.8 km/h
Sensor: Nr:Datum:Temp:Abs-Feuchte:Windchill:Wind:
Aussen-T/F 751 12-05-2016 14:30:00 20.9 C 10.93 g/m*3 20.9 C 6.4 km/h
752 12-05-2016 14:35:00 20.8 C 11.05 g/m*3 20.8 C 8.1 km/h
753 12-05-2016 14:40:00 20.7 C 10.98 g/m*3 20.7 C 6.4 km/h
754 12-05-2016 14:45:00 20.8 C 11.05 g/m*3 20.8 C 3.2 km/h
755 12-05-2016 14:50:00 20.9 C 10.93 g/m*3 20.9 C 4.8 km/h
756 12-05-2016 14:55:00 20.9 C 11.11 g/m*3 20.9 C 4.8 km/h
757 12-05-2016 15:00:00 21.1 C 11.06 g/m*3 21.1 C 4.8 km/h
758 12-05-2016 15:05:00 21.3 C 11.18 g/m*3 21.3 C 4.8 km/h
759 12-05-2016 15:10:00 21.6 C 11.19 g/m*3 21.6 C 8.1 km/h
760 12-05-2016 15:15:00 21.7 C 11.06 g/m*3 21.7 C 6.4 km/h
761 12-05-2016 15:20:00 21.7 C 11.06 g/m*3 21.7 C 8.1 km/h
762 12-05-2016 15:25:00 21.7 C 11.25 g/m*3 21.7 C 11.3 km/h
763 12-05-2016 15:30:00 21.8 C 11.32 g/m*3 21.8 C 6.4 km/h
764 12-05-2016 15:35:00 21.9 C 10.81 g/m*3 21.9 C 12.9 km/h
765 12-05-2016 15:40:00 21.9 C 11 g/m*3 21.9 C 14.5 km/h
766 12-05-2016 15:45:00 21.8 C 11.13 g/m*3 21.8 C 9.7 km/h
767 12-05-2016 15:50:00 21.7 C 11.06 g/m*3 21.7 C 8.1 km/h
768 12-05-2016 15:55:00 21.6 C 11 g/m*3 21.6 C 6.4 km/h
769 12-05-2016 16:00:00 21.6 C 11.19 g/m*3 21.6 C 6.4 km/h
770 12-05-2016 16:05:00 21.5 C 11.13 g/m*3 21.5 C 1.6 km/h
771 12-05-2016 16:10:00 21.6 C 11.38 g/m*3 21.6 C 0 km/h
772 12-05-2016 16:15:00 21.7 C 11.45 g/m*3 21.7 C 4.8 km/h
773 12-05-2016 16:20:00 21.7 C 11.06 g/m*3 21.7 C 9.7 km/h
774 12-05-2016 16:25:00 21.7 C 11.06 g/m*3 21.7 C 14.5 km/h
775 12-05-2016 16:30:00 21.6 C 11 g/m*3 21.6 C 12.9 km/h
Sensor: Nr:Datum:Temp:Abs-Feuchte:Windchill:Wind:
Aussen-T/F 776 12-05-2016 16:35:00 21.6 C 11.19 g/m*3 21.6 C 4.8 km/h
777 12-05-2016 16:40:00 21.6 C 11 g/m*3 21.6 C 8.1 km/h
778 12-05-2016 16:45:00 21.8 C 10.94 g/m*3 21.8 C 9.7 km/h
779 12-05-2016 16:50:00 22.2 C 11.19 g/m*3 22.2 C 9.7 km/h
780 12-05-2016 16:55:00 22.4 C 10.92 g/m*3 22.4 C 11.3 km/h
781 12-05-2016 17:00:00 22.8 C 10.97 g/m*3 22.8 C 12.9 km/h
782 12-05-2016 17:05:00 22.8 C 10.97 g/m*3 22.8 C 11.3 km/h
783 12-05-2016 17:10:00 22.7 C 10.91 g/m*3 22.7 C 8.1 km/h
784 12-05-2016 17:15:00 22.9 C 10.83 g/m*3 22.9 C 9.7 km/h
785 12-05-2016 17:20:00 22.9 C 11.04 g/m*3 22.9 C 9.7 km/h
786 12-05-2016 17:25:00 22.9 C 11.04 g/m*3 22.9 C 4.8 km/h
787 12-05-2016 17:30:00 22.8 C 10.77 g/m*3 22.8 C 6.4 km/h
788 12-05-2016 17:35:00 22.8 C 10.97 g/m*3 22.8 C 12.9 km/h
789 12-05-2016 17:40:00 22.8 C 11.38 g/m*3 22.8 C 6.4 km/h
790 12-05-2016 17:45:00 22.8 C 11.18 g/m*3 22.8 C 9.7 km/h
791 12-05-2016 17:50:00 22.7 C 11.11 g/m*3 22.7 C 9.7 km/h
792 12-05-2016 17:55:00 22.7 C 11.52 g/m*3 22.7 C 4.8 km/h
793 12-05-2016 18:00:00 22.7 C 10.91 g/m*3 22.7 C 9.7 km/h
794 12-05-2016 18:05:00 22.7 C 11.11 g/m*3 22.7 C 8.1 km/h
795 12-05-2016 18:10:00 22.7 C 10.91 g/m*3 22.7 C 8.1 km/h
796 12-05-2016 18:15:00 22.7 C 11.52 g/m*3 22.7 C 11.3 km/h
797 12-05-2016 18:20:00 22.6 C 10.85 g/m*3 22.6 C 4.8 km/h
798 12-05-2016 18:25:00 22.3 C 11.06 g/m*3 22.3 C 9.7 km/h
799 12-05-2016 18:30:00 22.1 C 11.13 g/m*3 22.1 C 4.8 km/h
800 12-05-2016 18:35:00 21.9 C 11.39 g/m*3 21.9 C 6.4 km/h
Sensor: Nr:Datum:Temp:Abs-Feuchte:Windchill:Wind:
Aussen-T/F 801 12-05-2016 18:40:00 21.9 C 11.19 g/m*3 21.9 C 6.4 km/h
802 12-05-2016 18:45:00 21.9 C 11.19 g/m*3 21.9 C 3.2 km/h
803 12-05-2016 18:50:00 21.9 C 11.19 g/m*3 21.9 C 0 km/h
804 12-05-2016 18:55:00 21.9 C 11 g/m*3 21.9 C 3.2 km/h
805 12-05-2016 19:00:00 22.2 C 11.19 g/m*3 22.2 C 8.1 km/h
806 12-05-2016 19:05:00 22.3 C 11.06 g/m*3 22.3 C 8.1 km/h
807 12-05-2016 19:10:00 22.5 C 11.19 g/m*3 22.5 C 4.8 km/h
808 12-05-2016 19:15:00 22.6 C 11.05 g/m*3 22.6 C 4.8 km/h
809 12-05-2016 19:20:00 22.4 C 10.92 g/m*3 22.4 C 6.4 km/h
810 12-05-2016 19:25:00 22.4 C 11.12 g/m*3 22.4 C 3.2 km/h
811 12-05-2016 19:30:00 22.4 C 12.31 g/m*3 22.4 C 0 km/h
812 12-05-2016 19:35:00 22.3 C 12.44 g/m*3 22.3 C 0 km/h
813 12-05-2016 19:40:00 22.2 C 11.98 g/m*3 22.2 C 0 km/h
814 12-05-2016 19:45:00 21.9 C 12.54 g/m*3 21.9 C 0 km/h
815 12-05-2016 19:50:00 21.6 C 12.14 g/m*3 21.6 C 0 km/h
816 12-05-2016 19:55:00 21.3 C 12.3 g/m*3 21.3 C 0 km/h
817 12-05-2016 20:00:00 20.9 C 12.2 g/m*3 20.9 C 0 km/h
818 12-05-2016 20:05:00 20.5 C 11.92 g/m*3 20.5 C 0 km/h
819 12-05-2016 20:10:00 20.1 C 11.65 g/m*3 20.1 C 0 km/h
820 12-05-2016 20:15:00 19.8 C 11.61 g/m*3 19.8 C 0 km/h
821 12-05-2016 20:20:00 19.6 C 11.82 g/m*3 19.6 C 0 km/h
822 12-05-2016 20:25:00 19.5 C 11.41 g/m*3 19.5 C 0 km/h
823 12-05-2016 20:30:00 19.4 C 11.51 g/m*3 19.4 C 0 km/h
824 12-05-2016 20:35:00 19.3 C 11.61 g/m*3 19.3 C 0 km/h
825 12-05-2016 20:40:00 19.3 C 11.94 g/m*3 19.3 C 0 km/h
Sensor: Nr:Datum:Temp:Abs-Feuchte:Windchill:Wind:
Aussen-T/F 826 12-05-2016 20:45:00 19.2 C 11.87 g/m*3 19.2 C 0 km/h
827 12-05-2016 20:50:00 18.9 C 11.83 g/m*3 18.9 C 0 km/h
828 12-05-2016 20:55:00 18.7 C 11.69 g/m*3 18.7 C 0 km/h
829 12-05-2016 21:00:00 18.4 C 11.64 g/m*3 18.4 C 0 km/h
830 12-05-2016 21:05:00 18.2 C 11.5 g/m*3 18.2 C 0 km/h
831 12-05-2016 21:10:00 18.1 C 11.59 g/m*3 18.1 C 0 km/h
832 12-05-2016 21:15:00 17.8 C 11.23 g/m*3 17.8 C 0 km/h
833 12-05-2016 21:20:00 17.7 C 11.32 g/m*3 17.7 C 0 km/h
834 12-05-2016 21:25:00 17.7 C 11.32 g/m*3 17.7 C 0 km/h
835 12-05-2016 21:30:00 17.6 C 11.25 g/m*3 17.6 C 0 km/h
836 12-05-2016 21:35:00 17.4 C 11.26 g/m*3 17.4 C 0 km/h
837 12-05-2016 21:40:00 17.4 C 11.26 g/m*3 17.4 C 0 km/h
838 12-05-2016 21:45:00 17.3 C 11.34 g/m*3 17.3 C 0 km/h
839 12-05-2016 21:50:00 17.2 C 11.28 g/m*3 17.2 C 0 km/h
840 12-05-2016 21:55:00 17.1 C 11.35 g/m*3 17.1 C 0 km/h
841 12-05-2016 22:00:00 16.9 C 11.22 g/m*3 16.9 C 0 km/h
842 12-05-2016 22:05:00 16.8 C 11.29 g/m*3 16.8 C 0 km/h
843 12-05-2016 22:10:00 16.7 C 11.23 g/m*3 16.7 C 0 km/h
844 12-05-2016 22:15:00 16.5 C 11.23 g/m*3 16.5 C 0 km/h
845 12-05-2016 22:20:00 16.4 C 11.17 g/m*3 16.4 C 0 km/h
846 12-05-2016 22:25:00 16.3 C 11.1 g/m*3 16.3 C 0 km/h
847 12-05-2016 22:30:00 16.2 C 11.17 g/m*3 16.2 C 0 km/h
848 12-05-2016 22:35:00 16.1 C 11.24 g/m*3 16.1 C 3.2 km/h
849 12-05-2016 22:40:00 16.1 C 11.1 g/m*3 16.1 C 3.2 km/h
850 12-05-2016 22:45:00 16.1 C 11.1 g/m*3 16.1 C 1.6 km/h
Sensor: Nr:Datum:Temp:Abs-Feuchte:Windchill:Wind:
Aussen-T/F 851 12-05-2016 22:50:00 16.1 C 11.1 g/m*3 16.1 C 0 km/h
852 12-05-2016 22:55:00 15.9 C 11.1 g/m*3 15.9 C 0 km/h
853 12-05-2016 23:00:00 15.8 C 11.04 g/m*3 15.8 C 0 km/h
854 12-05-2016 23:05:00 15.7 C 11.11 g/m*3 15.7 C 1.6 km/h
855 12-05-2016 23:10:00 15.6 C 11.04 g/m*3 15.6 C 0 km/h
856 12-05-2016 23:15:00 15.5 C 10.97 g/m*3 15.5 C 0 km/h
857 12-05-2016 23:20:00 15.3 C 10.84 g/m*3 15.3 C 0 km/h
858 12-05-2016 23:25:00 15.2 C 10.77 g/m*3 15.2 C 0 km/h
859 12-05-2016 23:30:00 15 C 10.77 g/m*3 15 C 0 km/h
860 12-05-2016 23:35:00 14.9 C 10.83 g/m*3 14.9 C 0 km/h
861 12-05-2016 23:40:00 14.8 C 10.77 g/m*3 14.8 C 0 km/h
862 12-05-2016 23:45:00 14.7 C 10.7 g/m*3 14.7 C 0 km/h
863 12-05-2016 23:50:00 14.6 C 10.76 g/m*3 14.6 C 0 km/h
864 12-05-2016 23:55:00 14.6 C 10.89 g/m*3 14.6 C 0 km/h

Legende:
   Min
   Max


Maximal/Minimal-Werte vom 10.05.2016 - 12.05.2016

Sensor Min Max Avg
Temp
(Aussen-T/F)
11.1 °C
11-05-2016  05:35:00
25.8 °C
11-05-2016  16:15:00
17.45 °C
Abs-Feuchte
(Aussen-T/F)
9.25 g/m*3
11-05-2016  19:45:00
13.85 g/m*3
10-05-2016  17:50:00
10.87 g/m*3
Windchill
(Aussen-T/F)
11.1 C
11-05-2016  05:35:00
25.8 C
11-05-2016  16:15:00
17.43 C

Die Daten stammen von einer Davis Vantage Pro 2 Wetter-Station und werden unter Linux mit der Software wview2wettercgi und aufbereitet. Alle Angaben erfolgen ohne Gewähr für ihre Vollständigkeit oder Richtigkeit.
Kontakt: Rainer Krienke krienke@uni-koblenz.de . Meine Webseiten an der Uni Koblenz oder privat.
Version: $Revision: 0.78 $